Terminal Aerodrome Forecast
Issued by NWS

Home | Current Version | Previous Version | Text Only | Print | Product List | Glossary On
Versions: 1 2 3 4 5 6 7 8 9 10 11 12
882
FTUS44 KLZK 131739
TAFPBF
TAF
KPBF 131739Z 1318/1418 06009G16KT P6SM SCT250
     FM140600 10007KT P6SM SCT025 BKN060
      TEMPO 1410/1414 BKN025
     FM141400 14008KT P6SM SCT015 OVC025=

USA.gov is the U.S. government's official web portal to all federal, state and local government web resources and services.